Time;durP1;ratioP1;P1;durP2;ratioP2;P2;SDS_P1;SDS_P2;PMS_P1;PMS_P2;Temp;Humidity;BMP_temperature;BMP_pressure;BME280_temperature;BME280_humidity;BME280_pressure;Samples;Min_cycle;Max_cycle;Signal;HPM_P1;HPM_P2
2022/12/24 00:00:06;;;;;;;10.68;3.15;;;12.20;99.90;;;;;;5075354;28;20192;-62
2022/12/24 00:02:31;;;;;;;7.05;2.35;;;12.20;99.90;;;;;;5072601;28;20176;-62
2022/12/24 00:04:57;;;;;;;8.23;2.45;;;12.20;99.90;;;;;;5103065;28;20216;-62
2022/12/24 00:07:23;;;;;;;20.40;2.47;;;12.10;99.90;;;;;;5089744;28;20184;-62
2022/12/24 00:09:48;;;;;;;21.23;4.55;;;12.10;99.90;;;;;;5087790;28;20192;-62
2022/12/24 00:12:14;;;;;;;20.63;4.47;;;12.10;99.90;;;;;;5090939;28;20180;-62
2022/12/24 00:14:40;;;;;;;22.98;2.80;;;12.00;99.90;;;;;;5086737;28;20185;-62
2022/12/24 00:17:05;;;;;;;12.05;3.45;;;12.00;99.90;;;;;;5090590;28;20226;-62
2022/12/24 00:19:31;;;;;;;14.68;2.35;;;12.00;99.90;;;;;;5053839;28;20181;-63
2022/12/24 00:21:57;;;;;;;11.18;3.10;;;12.10;99.90;;;;;;5072835;28;20237;-62
2022/12/24 00:24:22;;;;;;;9.63;2.50;;;11.90;99.90;;;;;;5096687;28;20648;-62
2022/12/24 00:26:48;;;;;;;12.70;3.58;;;12.00;99.90;;;;;;5072279;28;20217;-62
2022/12/24 00:29:14;;;;;;;10.18;2.45;;;12.00;99.90;;;;;;5073468;28;20297;-65
2022/12/24 00:31:39;;;;;;;8.93;2.80;;;11.90;99.90;;;;;;5072575;28;20612;-62
2022/12/24 00:34:05;;;;;;;14.23;2.78;;;11.80;99.90;;;;;;5073704;28;20208;-62
2022/12/24 00:36:31;;;;;;;18.08;3.75;;;11.80;99.90;;;;;;5074504;28;20192;-62
2022/12/24 00:38:56;;;;;;;12.50;2.53;;;11.90;99.90;;;;;;5070309;28;20223;-62
2022/12/24 00:41:26;;;;;;;12.70;4.53;;;12.00;99.90;;;;;;5089397;28;20691;-62
2022/12/24 00:44:04;;;;;;;12.73;2.75;;;12.10;99.90;;;;;;5080177;28;20176;-62
2022/12/24 00:46:31;;;;;;;14.77;2.58;;;12.10;99.90;;;;;;5089962;28;20200;-62
2022/12/24 00:48:57;;;;;;;24.25;4.03;;;12.20;99.90;;;;;;5095186;28;20193;-62
2022/12/24 00:51:23;;;;;;;9.00;3.10;;;12.10;99.90;;;;;;5094930;28;20181;-63
2022/12/24 00:53:50;;;;;;;11.70;2.35;;;12.10;99.90;;;;;;5094132;28;20540;-62
2022/12/24 00:56:16;;;;;;;14.27;2.67;;;12.10;99.90;;;;;;5093282;28;20184;-62
2022/12/24 00:58:42;;;;;;;17.90;3.05;;;12.10;99.90;;;;;;5084204;28;20231;-62
2022/12/24 01:01:08;;;;;;;11.05;3.70;;;12.10;99.90;;;;;;5094550;28;20188;-62
2022/12/24 01:03:34;;;;;;;9.93;2.85;;;11.90;99.90;;;;;;5094185;28;20207;-62
2022/12/24 01:06:15;;;;;;;18.33;3.30;;;12.00;99.90;;;;;;5094888;28;20192;-62
2022/12/24 01:08:41;;;;;;;12.35;2.83;;;12.00;99.90;;;;;;5094897;28;20200;-62
2022/12/24 01:11:08;;;;;;;9.45;2.30;;;11.90;99.90;;;;;;5094017;28;20184;-62
2022/12/24 01:13:35;;;;;;;16.27;4.72;;;11.80;99.90;;;;;;5086962;28;20259;-62
2022/12/24 01:16:00;;;;;;;10.38;3.15;;;11.70;99.90;;;;;;5092502;28;20206;-62
2022/12/24 01:18:27;;;;;;;9.20;4.32;;;11.70;99.90;;;;;;5090698;28;20187;-62
2022/12/24 01:21:02;;;;;;;10.57;3.10;;;11.60;99.90;;;;;;5074883;28;20181;-62
2022/12/24 01:23:30;;;;;;;12.63;3.00;;;11.60;99.90;;;;;;5095247;28;20192;-62
2022/12/24 01:26:00;;;;;;;10.55;3.63;;;11.60;99.90;;;;;;5094221;28;20287;-62
2022/12/24 01:28:26;;;;;;;5.72;2.78;;;11.50;99.90;;;;;;5094415;28;20227;-62
2022/12/24 01:30:51;;;;;;;12.82;4.80;;;11.40;99.90;;;;;;5094337;28;20197;-62
2022/12/24 01:33:17;;;;;;;9.20;2.95;;;11.40;99.90;;;;;;5082337;28;20223;-63
2022/12/24 01:35:43;;;;;;;14.82;3.67;;;11.40;99.90;;;;;;5090932;28;20180;-62
2022/12/24 01:38:11;;;;;;;8.77;3.00;;;11.40;99.90;;;;;;5101684;28;20207;-61
2022/12/24 01:43:23;;;;;;;9.93;2.95;;;11.40;99.90;;;;;;5093534;28;20215;-62
2022/12/24 01:46:02;;;;;;;12.85;2.50;;;11.60;99.90;;;;;;5105399;28;20674;-62
2022/12/24 01:48:39;;;;;;;9.00;2.28;;;11.60;99.90;;;;;;5091455;28;20199;-61
2022/12/24 01:51:26;;;;;;;9.23;3.28;;;11.60;99.90;;;;;;5093257;28;20200;-62
2022/12/24 01:54:00;;;;;;;15.38;2.70;;;11.60;99.90;;;;;;5084682;28;20208;-62
2022/12/24 01:56:28;;;;;;;11.35;2.90;;;11.60;99.90;;;;;;5085755;28;20181;-61
2022/12/24 01:59:01;;;;;;;5.80;2.13;;;11.60;99.90;;;;;;5092268;28;20227;-61
2022/12/24 02:01:27;;;;;;;4.35;2.58;;;11.50;99.90;;;;;;5092937;28;20246;-62
2022/12/24 02:03:53;;;;;;;5.70;2.30;;;11.60;99.90;;;;;;5092570;28;20184;-61
2022/12/24 02:06:20;;;;;;;7.05;2.15;;;11.70;99.90;;;;;;5093741;28;20666;-61
2022/12/24 02:08:47;;;;;;;6.28;2.78;;;11.60;99.90;;;;;;5087714;28;20193;-62
2022/12/24 02:11:19;;;;;;;12.38;2.85;;;11.60;99.90;;;;;;5089028;28;20240;-62
2022/12/24 02:13:59;;;;;;;12.98;3.67;;;11.70;99.90;;;;;;5092654;28;20234;-61
2022/12/24 02:16:33;;;;;;;7.22;3.03;;;11.60;99.90;;;;;;5082967;28;20180;-61
2022/12/24 02:19:20;;;;;;;8.90;3.33;;;11.50;99.90;;;;;;5094044;28;20180;-61
2022/12/24 02:22:21;;;;;;;6.43;2.60;;;11.50;99.90;;;;;;5092936;28;20185;-62
2022/12/24 02:24:55;;;;;;;5.40;2.97;;;11.50;99.90;;;;;;5089045;28;20196;-62
2022/12/24 02:27:56;;;;;;;14.60;3.20;;;11.50;99.90;;;;;;5082690;28;20538;-62
2022/12/24 02:30:37;;;;;;;7.30;3.55;;;11.50;99.90;;;;;;5056404;28;20184;-62
2022/12/24 02:33:39;;;;;;;11.02;2.50;;;11.40;99.90;;;;;;5087479;28;20738;-62
2022/12/24 02:36:19;;;;;;;11.73;3.72;;;11.30;99.90;;;;;;5085547;28;20604;-62
2022/12/24 02:38:59;;;;;;;13.00;3.38;;;11.30;99.90;;;;;;5088536;28;20169;-61
2022/12/24 02:42:04;;;;;;;14.52;3.88;;;11.40;99.90;;;;;;5085888;28;20210;-61
2022/12/24 02:44:21;;;;;;;19.92;3.10;;;11.40;99.90;;;;;;5085415;28;20193;-62
2022/12/24 02:46:48;;;;;;;13.13;4.18;;;11.40;99.90;;;;;;5092635;28;20207;-62
2022/12/24 02:49:14;;;;;;;13.07;3.35;;;11.50;99.90;;;;;;5092612;28;20700;-62
2022/12/24 02:51:40;;;;;;;9.10;3.03;;;11.50;99.90;;;;;;5091588;28;20248;-62
2022/12/24 02:54:06;;;;;;;8.27;3.22;;;11.60;99.90;;;;;;5090781;28;20215;-62
2022/12/24 02:56:37;;;;;;;17.98;4.10;;;11.60;99.90;;;;;;5093359;28;20189;-62
2022/12/24 02:59:44;;;;;;;15.95;4.47;;;11.60;99.90;;;;;;5083592;28;20180;-62
2022/12/24 03:02:25;;;;;;;12.13;3.40;;;11.70;99.90;;;;;;5091564;28;20189;-63
2022/12/24 03:05:24;;;;;;;9.95;3.00;;;11.70;99.90;;;;;;5089781;28;20222;-62
2022/12/24 03:08:16;;;;;;;11.23;3.33;;;11.80;99.90;;;;;;5079966;28;20177;-62
2022/12/24 03:10:56;;;;;;;12.63;3.47;;;11.70;99.90;;;;;;5052505;28;20196;-62
2022/12/24 03:13:23;;;;;;;13.00;4.03;;;11.60;99.90;;;;;;5093375;28;20215;-62
2022/12/24 03:15:50;;;;;;;13.98;3.80;;;11.70;99.90;;;;;;5089436;28;20628;-63
2022/12/24 03:18:22;;;;;;;5.18;2.50;;;11.70;99.90;;;;;;5092763;28;20173;-62
2022/12/24 03:20:55;;;;;;;16.92;4.75;;;11.80;99.90;;;;;;5086295;28;20556;-62
2022/12/24 03:23:21;;;;;;;12.77;3.63;;;11.60;99.90;;;;;;5092467;28;20197;-62
2022/12/24 03:25:47;;;;;;;16.17;3.88;;;11.60;99.90;;;;;;5090306;28;20211;-62
2022/12/24 03:28:16;;;;;;;11.93;3.45;;;11.60;99.90;;;;;;5090181;28;20268;-62
2022/12/24 03:30:44;;;;;;;8.95;3.30;;;11.60;99.90;;;;;;5092797;28;20180;-62
2022/12/24 03:33:10;;;;;;;9.55;4.10;;;11.50;99.90;;;;;;5088432;28;20270;-62
2022/12/24 03:35:36;;;;;;;14.75;4.88;;;11.50;99.90;;;;;;5087769;28;20212;-62
2022/12/24 03:38:02;;;;;;;11.77;4.00;;;11.40;99.90;;;;;;5087483;28;20269;-62
2022/12/24 03:40:27;;;;;;;9.70;3.70;;;11.20;99.90;;;;;;5091483;28;20643;-63
2022/12/24 03:42:53;;;;;;;11.52;3.97;;;11.20;99.90;;;;;;5091947;28;20264;-63
2022/12/24 03:45:18;;;;;;;11.45;3.88;;;11.20;99.90;;;;;;5085027;28;20215;-63
2022/12/24 03:47:44;;;;;;;16.90;5.65;;;11.20;99.90;;;;;;5091193;28;20214;-62
2022/12/24 03:50:10;;;;;;;16.05;4.13;;;11.40;99.90;;;;;;5090386;28;20551;-61
2022/12/24 03:52:35;;;;;;;15.90;3.67;;;11.40;99.90;;;;;;5090677;28;20192;-61
2022/12/24 03:55:01;;;;;;;18.63;4.90;;;11.40;99.90;;;;;;5090719;28;20177;-61
2022/12/24 03:57:27;;;;;;;8.50;4.32;;;11.50;99.90;;;;;;5091015;28;20195;-61
2022/12/24 03:59:53;;;;;;;12.20;5.05;;;11.60;99.90;;;;;;5087188;28;20591;-61
2022/12/24 04:02:18;;;;;;;8.82;3.50;;;11.60;99.90;;;;;;5092390;28;20644;-62
2022/12/24 04:04:44;;;;;;;8.15;3.60;;;11.50;99.90;;;;;;5091853;28;20173;-61
2022/12/24 04:07:10;;;;;;;16.10;5.35;;;11.60;99.90;;;;;;5091914;28;20181;-62
2022/12/24 04:09:35;;;;;;;9.63;3.63;;;11.60;99.90;;;;;;5091451;28;20207;-61
2022/12/24 04:12:01;;;;;;;15.00;3.67;;;11.60;99.90;;;;;;5087535;28;20245;-62
2022/12/24 04:14:27;;;;;;;19.90;5.22;;;11.60;99.90;;;;;;5086172;28;20190;-61
2022/12/24 04:16:53;;;;;;;10.98;3.70;;;11.60;99.90;;;;;;5098913;28;20574;-62
2022/12/24 04:19:18;;;;;;;15.23;3.42;;;11.50;99.90;;;;;;5087969;28;20185;-62
2022/12/24 04:21:44;;;;;;;12.57;3.70;;;11.20;99.90;;;;;;5080187;28;20635;-62
2022/12/24 04:24:10;;;;;;;12.77;4.32;;;11.00;99.90;;;;;;5091913;28;20604;-61
2022/12/24 04:26:35;;;;;;;15.27;4.97;;;11.20;99.90;;;;;;5106390;28;20196;-61
2022/12/24 04:29:01;;;;;;;16.90;4.13;;;11.20;99.90;;;;;;5093180;28;20262;-61
2022/12/24 04:31:26;;;;;;;15.30;4.28;;;11.40;99.90;;;;;;5076191;28;20185;-62
2022/12/24 04:33:52;;;;;;;9.77;4.13;;;11.40;99.90;;;;;;5095920;28;20181;-61
2022/12/24 04:36:19;;;;;;;23.88;6.65;;;11.50;99.90;;;;;;5085207;28;20211;-61
2022/12/24 04:38:46;;;;;;;15.95;3.00;;;11.60;99.90;;;;;;5094654;28;20221;-61
2022/12/24 04:41:15;;;;;;;18.17;4.00;;;11.60;99.90;;;;;;5078880;28;20185;-62
2022/12/24 04:43:41;;;;;;;13.10;3.08;;;11.60;99.90;;;;;;5088707;28;20176;-62
2022/12/24 04:46:17;;;;;;;14.57;4.32;;;11.60;99.90;;;;;;5082232;28;20209;-62
2022/12/24 04:48:44;;;;;;;12.90;3.38;;;11.70;99.90;;;;;;5091233;28;20618;-62
2022/12/24 04:51:10;;;;;;;10.88;3.40;;;11.60;99.90;;;;;;5096140;28;20222;-61
2022/12/24 04:53:36;;;;;;;13.32;3.33;;;11.50;99.90;;;;;;5093909;28;20211;-61
2022/12/24 04:56:02;;;;;;;9.98;2.78;;;11.50;99.90;;;;;;5094948;28;20185;-61
2022/12/24 04:58:28;;;;;;;12.35;2.80;;;11.60;99.90;;;;;;5059288;28;20179;-62
2022/12/24 05:00:53;;;;;;;8.77;3.83;;;11.60;99.90;;;;;;5087378;28;20185;-61
2022/12/24 05:03:19;;;;;;;9.00;3.20;;;11.70;99.90;;;;;;5090968;28;20239;-61
2022/12/24 05:05:46;;;;;;;16.05;3.95;;;11.70;99.90;;;;;;5095486;28;20200;-60
2022/12/24 05:08:12;;;;;;;23.70;5.57;;;11.40;99.90;;;;;;5089487;28;20189;-61
2022/12/24 05:10:38;;;;;;;16.77;3.70;;;11.40;99.90;;;;;;5096795;28;20528;-61
2022/12/24 05:13:03;;;;;;;10.88;3.40;;;11.60;99.90;;;;;;5074206;28;20185;-61
2022/12/24 05:15:29;;;;;;;14.88;3.47;;;11.50;99.90;;;;;;5083734;28;20233;-61
2022/12/24 05:17:57;;;;;;;13.80;4.43;;;11.40;99.90;;;;;;5095272;28;20173;-61
2022/12/24 05:20:22;;;;;;;11.18;3.33;;;11.40;99.90;;;;;;5094184;28;20188;-61
2022/12/24 05:26:36;;;;;;;18.48;5.00;;;11.20;99.90;;;;;;5086363;28;20259;-61
2022/12/24 05:28:31;;;;;;;17.70;3.08;;;11.20;99.90;;;;;;5071639;28;20287;-62
2022/12/24 05:30:56;;;;;;;12.52;3.58;;;11.00;99.90;;;;;;5086009;28;20231;-62
2022/12/24 05:33:23;;;;;;;7.68;3.28;;;11.00;99.90;;;;;;5083531;28;20570;-62
2022/12/24 05:35:50;;;;;;;14.57;3.47;;;11.10;99.90;;;;;;5086248;28;20195;-62
2022/12/24 05:38:16;;;;;;;14.38;4.00;;;11.10;99.90;;;;;;5089648;28;20184;-62
2022/12/24 05:40:42;;;;;;;5.90;2.47;;;11.10;99.90;;;;;;5093785;28;20193;-62
2022/12/24 05:43:07;;;;;;;9.63;2.75;;;11.20;99.90;;;;;;5093524;28;20184;-61
2022/12/24 05:45:33;;;;;;;11.02;2.85;;;11.30;99.90;;;;;;5094210;28;20658;-62
2022/12/24 05:47:59;;;;;;;8.45;4.38;;;11.30;99.90;;;;;;5092462;28;20663;-62
2022/12/24 05:50:25;;;;;;;11.45;3.35;;;11.30;99.90;;;;;;5093393;28;20588;-62
2022/12/24 05:52:50;;;;;;;14.43;3.45;;;11.30;99.90;;;;;;5083110;28;20177;-63
2022/12/24 05:55:16;;;;;;;13.40;3.33;;;11.30;99.90;;;;;;5093254;28;20635;-62
2022/12/24 05:57:42;;;;;;;15.38;3.88;;;11.30;99.90;;;;;;5088316;28;20177;-62
2022/12/24 06:00:08;;;;;;;13.23;3.80;;;11.30;99.90;;;;;;5080955;28;20189;-62
2022/12/24 06:02:33;;;;;;;23.00;3.53;;;11.30;99.90;;;;;;5090283;28;20180;-61
2022/12/24 06:04:59;;;;;;;17.00;3.63;;;11.30;99.90;;;;;;5087766;28;20547;-61
2022/12/24 06:07:25;;;;;;;13.30;4.25;;;11.30;99.90;;;;;;5091027;28;20189;-62
2022/12/24 06:09:51;;;;;;;8.95;2.70;;;11.30;99.90;;;;;;5092886;28;20196;-61
2022/12/24 06:12:16;;;;;;;13.45;3.03;;;11.20;99.90;;;;;;5087827;28;20189;-62
2022/12/24 06:14:42;;;;;;;14.65;3.28;;;11.20;99.90;;;;;;5093785;28;20176;-61
2022/12/24 06:17:08;;;;;;;13.63;4.28;;;11.30;99.90;;;;;;5087998;28;20185;-61
2022/12/24 06:19:33;;;;;;;7.82;2.80;;;11.30;99.90;;;;;;5082847;28;20188;-61
2022/12/24 06:21:59;;;;;;;9.57;3.58;;;11.20;99.90;;;;;;5085835;28;20636;-61
2022/12/24 06:24:24;;;;;;;6.35;2.83;;;11.00;99.90;;;;;;5090166;28;20189;-62
2022/12/24 06:26:50;;;;;;;6.88;3.30;;;10.90;99.90;;;;;;5092548;28;20212;-61
2022/12/24 06:29:16;;;;;;;12.43;3.10;;;10.90;99.90;;;;;;5092454;28;20291;-60
2022/12/24 06:31:41;;;;;;;19.20;4.32;;;10.90;99.90;;;;;;5092640;28;20268;-61
2022/12/24 06:34:07;;;;;;;16.33;3.83;;;11.00;99.90;;;;;;5093462;28;20673;-61
2022/12/24 06:36:33;;;;;;;9.98;3.40;;;10.90;99.90;;;;;;5090066;28;20192;-61
2022/12/24 06:38:58;;;;;;;20.60;3.45;;;10.90;99.90;;;;;;5065789;28;20188;-62
2022/12/24 06:41:24;;;;;;;13.48;4.78;;;11.00;99.90;;;;;;5088850;28;20619;-63
2022/12/24 06:43:51;;;;;;;16.52;3.17;;;10.80;99.90;;;;;;5093265;28;20662;-66
2022/12/24 06:46:19;;;;;;;8.48;2.67;;;10.70;99.90;;;;;;5092919;28;20202;-66
2022/12/24 06:48:45;;;;;;;29.45;6.90;;;10.80;99.90;;;;;;5085701;28;20185;-67
2022/12/24 06:51:12;;;;;;;20.45;4.10;;;10.80;99.90;;;;;;5092028;28;20184;-63
2022/12/24 06:53:38;;;;;;;14.57;4.78;;;10.80;99.90;;;;;;5086194;28;20196;-63
2022/12/24 06:56:05;;;;;;;18.30;4.30;;;10.80;99.90;;;;;;5105655;28;20193;-63
2022/12/24 06:58:32;;;;;;;13.77;4.85;;;10.80;99.90;;;;;;5091536;28;20188;-63
2022/12/24 07:01:01;;;;;;;15.55;4.07;;;11.00;99.90;;;;;;5092379;28;20297;-63
2022/12/24 07:03:27;;;;;;;15.05;4.00;;;11.10;99.90;;;;;;5080879;28;20636;-63
2022/12/24 07:05:53;;;;;;;19.73;5.10;;;11.10;99.90;;;;;;5092280;28;20199;-63
2022/12/24 07:08:19;;;;;;;11.07;3.67;;;11.10;99.90;;;;;;5093146;28;20643;-63
2022/12/24 07:10:44;;;;;;;9.43;3.80;;;11.10;99.90;;;;;;5091390;28;20628;-62
2022/12/24 07:13:10;;;;;;;15.77;3.90;;;11.10;99.90;;;;;;5066843;28;20189;-63
2022/12/24 07:15:36;;;;;;;14.52;3.47;;;11.00;99.90;;;;;;5079939;28;20211;-63
2022/12/24 07:18:01;;;;;;;12.65;3.47;;;11.00;99.90;;;;;;5092105;28;20631;-64
2022/12/24 07:20:27;;;;;;;14.15;4.47;;;11.00;99.90;;;;;;5093245;28;20191;-64
2022/12/24 07:22:53;;;;;;;13.80;3.22;;;11.00;99.90;;;;;;5092027;28;20184;-64
2022/12/24 07:25:18;;;;;;;14.75;3.38;;;11.10;99.90;;;;;;5091759;28;20209;-64
2022/12/24 07:27:44;;;;;;;13.95;3.45;;;11.10;99.90;;;;;;5091162;28;20558;-64
2022/12/24 07:30:10;;;;;;;18.00;3.55;;;11.20;99.90;;;;;;5071131;28;20264;-64
2022/12/24 07:32:36;;;;;;;15.50;3.42;;;11.20;99.90;;;;;;5090628;28;20181;-63
2022/12/24 07:35:02;;;;;;;16.48;4.70;;;11.20;99.90;;;;;;5081550;28;20183;-63
2022/12/24 07:37:27;;;;;;;10.32;3.95;;;11.10;99.90;;;;;;5090358;28;20182;-63
2022/12/24 07:39:53;;;;;;;18.67;4.35;;;11.10;99.90;;;;;;5085545;28;20199;-63
2022/12/24 07:42:19;;;;;;;17.13;4.00;;;11.10;99.90;;;;;;5086615;28;20566;-63
2022/12/24 07:44:45;;;;;;;11.30;4.68;;;11.10;99.90;;;;;;5090989;28;20188;-63
2022/12/24 07:47:11;;;;;;;17.55;3.42;;;11.00;99.90;;;;;;5090256;28;20639;-63
2022/12/24 07:49:36;;;;;;;8.20;4.25;;;11.00;99.90;;;;;;5078046;28;20186;-63
2022/12/24 07:52:03;;;;;;;10.60;3.45;;;11.00;99.90;;;;;;5066969;28;20223;-63
2022/12/24 07:54:28;;;;;;;19.30;3.70;;;11.00;99.90;;;;;;5085243;28;20233;-65
2022/12/24 07:56:54;;;;;;;19.30;3.78;;;11.00;99.90;;;;;;5076781;28;20189;-62
2022/12/24 07:59:20;;;;;;;17.70;3.40;;;11.00;99.90;;;;;;5085402;28;20184;-66
2022/12/24 08:01:46;;;;;;;6.88;3.17;;;10.90;99.90;;;;;;5084760;28;20192;-63
2022/12/24 08:04:11;;;;;;;16.75;4.35;;;10.90;99.90;;;;;;5091668;28;20189;-63
2022/12/24 08:06:37;;;;;;;14.80;3.40;;;10.90;99.90;;;;;;5077184;28;20205;-63
2022/12/24 08:09:03;;;;;;;12.85;4.63;;;11.10;99.90;;;;;;5088966;28;20210;-63
2022/12/24 08:11:29;;;;;;;13.55;4.45;;;11.00;99.90;;;;;;5091474;28;20511;-64
2022/12/24 08:13:54;;;;;;;11.82;3.60;;;10.90;99.90;;;;;;5084774;28;20204;-64
2022/12/24 08:16:20;;;;;;;11.15;3.15;;;10.90;99.90;;;;;;5088547;28;20191;-63
2022/12/24 08:18:46;;;;;;;11.02;4.28;;;11.00;99.90;;;;;;5091422;28;20349;-64
2022/12/24 08:21:12;;;;;;;21.17;5.72;;;11.00;99.90;;;;;;5082720;28;20653;-64
2022/12/24 08:23:37;;;;;;;13.98;3.80;;;10.80;99.90;;;;;;5090681;28;20282;-63
2022/12/24 08:26:07;;;;;;;15.40;4.75;;;10.90;99.90;;;;;;5084519;28;20201;-64
2022/12/24 08:28:34;;;;;;;18.30;4.05;;;11.00;99.90;;;;;;5086745;28;20180;-64
2022/12/24 08:31:00;;;;;;;9.20;4.10;;;11.00;99.90;;;;;;5088879;28;20177;-64
2022/12/24 08:33:25;;;;;;;14.82;3.53;;;11.10;99.90;;;;;;5090563;28;20520;-65
2022/12/24 08:35:53;;;;;;;13.07;3.55;;;11.10;99.90;;;;;;5089266;28;20181;-65
2022/12/24 08:38:19;;;;;;;11.82;3.33;;;11.10;99.90;;;;;;5090999;28;20192;-65
2022/12/24 08:40:48;;;;;;;18.63;4.88;;;11.10;99.90;;;;;;5087352;28;20181;-65
2022/12/24 08:43:18;;;;;;;17.00;5.18;;;11.20;99.90;;;;;;5079832;28;20169;-65
2022/12/24 08:45:48;;;;;;;20.67;4.43;;;11.30;99.90;;;;;;5103756;28;20298;-65
2022/12/24 08:48:14;;;;;;;11.98;4.00;;;11.30;99.90;;;;;;5077330;28;20185;-65
2022/12/24 08:50:41;;;;;;;10.35;3.67;;;11.40;99.90;;;;;;5080455;28;20180;-65
2022/12/24 08:53:08;;;;;;;12.93;4.05;;;11.30;99.90;;;;;;5091253;28;20702;-65
2022/12/24 08:55:34;;;;;;;20.67;4.30;;;11.30;99.90;;;;;;5087152;28;20191;-65
2022/12/24 08:58:00;;;;;;;14.82;3.70;;;11.20;99.90;;;;;;5082688;28;20172;-65
2022/12/24 09:00:26;;;;;;;18.02;3.75;;;11.20;99.90;;;;;;5061370;28;20189;-65
2022/12/24 09:02:51;;;;;;;11.73;3.55;;;11.20;99.90;;;;;;5103642;28;20212;-65
2022/12/24 09:05:17;;;;;;;20.35;6.28;;;11.30;99.90;;;;;;5086759;28;20630;-66
2022/12/24 09:07:43;;;;;;;15.20;4.53;;;11.30;99.90;;;;;;5088034;28;20177;-64
2022/12/24 09:10:10;;;;;;;18.40;6.13;;;11.30;99.90;;;;;;5076842;28;20631;-64
2022/12/24 09:12:36;;;;;;;17.48;3.65;;;11.30;99.90;;;;;;5093032;28;20192;-64
2022/12/24 09:15:03;;;;;;;18.60;4.00;;;11.30;99.90;;;;;;5093777;28;20189;-64
2022/12/24 09:17:28;;;;;;;23.38;4.93;;;11.30;99.90;;;;;;5094857;28;20180;-64
2022/12/24 09:19:54;;;;;;;10.25;4.13;;;11.40;99.90;;;;;;5093808;28;20188;-66
2022/12/24 09:22:20;;;;;;;9.68;3.92;;;11.40;99.90;;;;;;5086422;28;20193;-64
2022/12/24 09:24:46;;;;;;;11.43;4.85;;;11.40;99.90;;;;;;5092024;28;20189;-65
2022/12/24 09:27:12;;;;;;;13.30;3.78;;;11.50;99.90;;;;;;5093083;28;20315;-65
2022/12/24 09:29:39;;;;;;;17.15;4.68;;;11.50;99.90;;;;;;5075729;28;20185;-68
2022/12/24 09:32:05;;;;;;;12.50;3.95;;;11.60;99.90;;;;;;5092445;28;20272;-63
2022/12/24 09:34:31;;;;;;;11.77;3.95;;;11.60;99.90;;;;;;5094667;28;20212;-64
2022/12/24 09:36:58;;;;;;;14.95;4.18;;;11.60;99.90;;;;;;5092480;28;20288;-65
2022/12/24 09:39:24;;;;;;;22.52;4.63;;;11.60;99.90;;;;;;5092898;28;20212;-64
2022/12/24 09:42:02;;;;;;;12.02;4.50;;;11.70;99.90;;;;;;5092922;28;20250;-64
2022/12/24 09:44:54;;;;;;;14.73;4.30;;;11.70;99.90;;;;;;5094314;28;20191;-65
2022/12/24 09:47:26;;;;;;;21.20;5.88;;;11.70;99.90;;;;;;5091092;28;20172;-64
2022/12/24 09:49:53;;;;;;;19.08;5.60;;;11.90;99.90;;;;;;5079490;28;20538;-64
2022/12/24 09:52:41;;;;;;;9.75;3.88;;;11.80;99.90;;;;;;5087043;28;20192;-64
2022/12/24 09:55:19;;;;;;;15.52;3.97;;;11.90;99.90;;;;;;5104216;28;20203;-64
2022/12/24 09:57:48;;;;;;;14.05;4.78;;;11.90;99.90;;;;;;5088298;28;20656;-65
2022/12/24 10:00:23;;;;;;;22.85;5.45;;;11.90;99.90;;;;;;5088691;28;20187;-64
2022/12/24 10:02:49;;;;;;;15.52;4.90;;;12.00;99.90;;;;;;5086533;28;20230;-63
2022/12/24 10:05:16;;;;;;;18.60;5.18;;;12.10;99.90;;;;;;5093722;28;20197;-64
2022/12/24 10:07:48;;;;;;;22.48;4.20;;;12.00;99.90;;;;;;5109354;28;20703;-64
2022/12/24 10:10:37;;;;;;;8.13;4.15;;;12.00;99.90;;;;;;5093180;28;20256;-64
2022/12/24 10:13:42;;;;;;;13.38;3.85;;;11.90;99.90;;;;;;5091506;28;20185;-70
2022/12/24 10:16:25;;;;;;;20.40;3.70;;;12.00;99.90;;;;;;5091386;28;20526;-65
2022/12/24 10:19:18;;;;;;;16.02;5.47;;;12.20;99.90;;;;;;5093232;28;20173;-66
2022/12/24 10:21:57;;;;;;;10.13;3.30;;;12.30;99.90;;;;;;5085490;28;20181;-64
2022/12/24 10:24:53;;;;;;;14.23;3.42;;;12.50;99.90;;;;;;5085655;28;20192;-64
2022/12/24 10:27:23;;;;;;;12.85;3.78;;;12.50;99.90;;;;;;5093047;28;20635;-65
2022/12/24 10:29:55;;;;;;;11.50;3.88;;;12.50;99.90;;;;;;5092462;28;20183;-64
2022/12/24 10:32:24;;;;;;;10.60;3.65;;;12.50;99.90;;;;;;5086498;28;20265;-63
2022/12/24 10:35:07;;;;;;;15.18;3.80;;;12.70;99.90;;;;;;5089530;28;20246;-64
2022/12/24 10:37:33;;;;;;;13.02;3.70;;;12.90;99.90;;;;;;5093797;28;20177;-64
2022/12/24 10:40:01;;;;;;;13.77;3.83;;;13.00;99.90;;;;;;5086552;28;20199;-64
2022/12/24 10:42:41;;;;;;;16.73;3.88;;;12.90;99.90;;;;;;5098174;28;20189;-63
2022/12/24 10:45:14;;;;;;;16.00;3.92;;;12.80;99.90;;;;;;5083556;28;20200;-64
2022/12/24 10:47:43;;;;;;;20.05;4.40;;;12.80;99.90;;;;;;5092928;28;20177;-65
2022/12/24 10:50:23;;;;;;;21.38;5.60;;;12.80;99.90;;;;;;5091898;28;20263;-66
2022/12/24 10:52:53;;;;;;;29.98;5.32;;;12.70;99.90;;;;;;5087377;28;20548;-66
2022/12/24 10:55:19;;;;;;;24.90;5.18;;;12.60;99.90;;;;;;5083494;28;20547;-66
2022/12/24 10:57:55;;;;;;;14.52;4.07;;;12.60;99.90;;;;;;5101023;28;20263;-66
2022/12/24 11:00:23;;;;;;;16.80;3.95;;;12.60;99.90;;;;;;5087670;28;20187;-66
2022/12/24 11:03:20;;;;;;;18.63;5.07;;;12.70;99.90;;;;;;5091163;28;20703;-66
2022/12/24 11:05:57;;;;;;;14.70;5.18;;;12.60;99.90;;;;;;5083857;28;20208;-65
2022/12/24 11:08:24;;;;;;;14.45;3.80;;;12.60;99.90;;;;;;5090358;28;20557;-65
2022/12/24 11:11:02;;;;;;;20.42;6.18;;;12.60;99.90;;;;;;5091689;28;20204;-65
2022/12/24 11:13:32;;;;;;;20.83;5.22;;;12.50;99.90;;;;;;5086061;28;20176;-66
2022/12/24 11:16:01;;;;;;;15.15;3.92;;;12.50;99.90;;;;;;5087746;28;20195;-67
2022/12/24 11:18:27;;;;;;;13.38;3.88;;;12.50;99.90;;;;;;5090648;28;20259;-65
2022/12/24 11:20:54;;;;;;;14.13;4.00;;;12.40;99.90;;;;;;5091032;28;20623;-66
2022/12/24 11:23:20;;;;;;;22.13;5.60;;;12.40;99.90;;;;;;5089705;28;20603;-66
2022/12/24 11:25:49;;;;;;;13.35;4.43;;;12.50;99.90;;;;;;5092937;28;20604;-64
2022/12/24 11:28:35;;;;;;;13.27;4.03;;;12.50;99.90;;;;;;5085963;28;20627;-63
2022/12/24 11:31:00;;;;;;;14.45;3.55;;;12.40;99.90;;;;;;5081478;28;20188;-65
2022/12/24 11:33:28;;;;;;;15.23;5.57;;;12.20;99.90;;;;;;5089027;28;20173;-65
2022/12/24 11:36:00;;;;;;;11.10;3.63;;;12.10;99.90;;;;;;5086892;28;20177;-65
2022/12/24 11:38:27;;;;;;;19.38;5.13;;;12.20;99.90;;;;;;5098025;28;20176;-71
2022/12/24 11:40:58;;;;;;;16.30;6.25;;;12.30;99.90;;;;;;5088231;28;20534;-67
2022/12/24 11:43:24;;;;;;;10.40;3.38;;;12.30;99.90;;;;;;5087005;28;20173;-66
2022/12/24 11:45:55;;;;;;;16.05;4.68;;;12.40;99.90;;;;;;5081746;28;20208;-65
2022/12/24 11:48:32;;;;;;;23.38;6.40;;;12.40;99.90;;;;;;5088872;28;20211;-67
2022/12/24 11:51:04;;;;;;;13.20;4.30;;;12.50;99.90;;;;;;5087174;28;20219;-65
2022/12/24 11:53:37;;;;;;;14.05;5.18;;;12.40;99.90;;;;;;5090220;28;20184;-66
2022/12/24 11:56:11;;;;;;;15.45;4.03;;;12.40;99.90;;;;;;5099414;28;20212;-65
2022/12/24 11:58:52;;;;;;;13.07;3.53;;;12.50;99.90;;;;;;5082617;28;20206;-65
2022/12/24 12:01:23;;;;;;;10.43;3.70;;;12.60;99.90;;;;;;5087915;28;20181;-65
2022/12/24 12:03:55;;;;;;;23.50;5.43;;;12.80;99.90;;;;;;5089215;28;20255;-65
2022/12/24 12:06:26;;;;;;;15.68;4.28;;;13.00;99.90;;;;;;5089880;28;20204;-65
2022/12/24 12:08:58;;;;;;;15.55;5.05;;;13.20;99.90;;;;;;5088958;28;20692;-65
2022/12/24 12:11:26;;;;;;;12.95;4.90;;;13.00;99.90;;;;;;5083507;28;20169;-65
2022/12/24 12:13:55;;;;;;;12.90;4.82;;;13.10;99.90;;;;;;5092386;28;20967;-65
2022/12/24 12:17:02;;;;;;;12.18;3.38;;;13.20;99.90;;;;;;5090710;28;20184;-65
2022/12/24 12:19:39;;;;;;;8.60;3.53;;;13.30;99.90;;;;;;5086480;28;20524;-65
2022/12/24 12:22:10;;;;;;;16.77;4.07;;;13.30;99.90;;;;;;5092348;28;20217;-65
2022/12/24 12:24:43;;;;;;;19.42;5.97;;;13.30;99.90;;;;;;5078350;28;20228;-65
2022/12/24 12:27:08;;;;;;;17.65;5.53;;;13.20;99.90;;;;;;5088824;28;20197;-64
2022/12/24 12:29:43;;;;;;;18.58;4.15;;;13.20;99.90;;;;;;5085891;28;20670;-66
2022/12/24 12:32:26;;;;;;;19.95;5.55;;;13.10;99.90;;;;;;5085106;28;20610;-62
2022/12/24 12:35:02;;;;;;;11.05;3.90;;;13.20;99.90;;;;;;5081509;28;20180;-67
2022/12/24 12:37:40;;;;;;;13.13;5.15;;;13.10;99.90;;;;;;5091920;28;20181;-67
2022/12/24 12:40:16;;;;;;;9.38;4.28;;;13.10;99.90;;;;;;5091792;28;20642;-66
2022/12/24 12:43:03;;;;;;;13.05;4.28;;;13.20;99.90;;;;;;5082016;28;20245;-65
2022/12/24 12:45:38;;;;;;;21.73;4.32;;;13.30;99.90;;;;;;5090898;28;20200;-66
2022/12/24 12:48:27;;;;;;;8.43;4.00;;;13.50;99.90;;;;;;5095245;28;20180;-67
2022/12/24 12:51:20;;;;;;;14.90;5.03;;;13.60;99.90;;;;;;5095542;28;20630;-66
2022/12/24 12:54:14;;;;;;;8.93;2.88;;;13.60;99.90;;;;;;5090575;28;20173;-65
2022/12/24 12:56:45;;;;;;;8.77;4.28;;;13.70;99.90;;;;;;5084294;28;20257;-65